sensor_id;sensor_type;location;lat;lon;timestamp;pressure;altitude;pressure_sealevel;temperature;humidity
33697;BME280;20031;43.416;23.232;2023-01-19T00:00:13;98686.22;;;16.65;45.12
33697;BME280;20031;43.416;23.232;2023-01-19T00:02:40;98717.97;;;16.97;44.58
33697;BME280;20031;43.416;23.232;2023-01-19T00:05:08;98686.16;;;17.10;44.51
33697;BME280;20031;43.416;23.232;2023-01-19T00:07:33;98696.44;;;17.12;44.14
33697;BME280;20031;43.416;23.232;2023-01-19T00:09:59;98701.84;;;17.05;44.67
33697;BME280;20031;43.416;23.232;2023-01-19T00:12:25;98704.47;;;17.05;44.48
33697;BME280;20031;43.416;23.232;2023-01-19T00:14:50;98715.44;;;17.02;44.62
33697;BME280;20031;43.416;23.232;2023-01-19T00:17:17;98701.63;;;16.95;44.89
33697;BME280;20031;43.416;23.232;2023-01-19T00:19:43;98712.03;;;16.90;44.54
33697;BME280;20031;43.416;23.232;2023-01-19T00:22:08;98712.50;;;16.87;45.23
33697;BME280;20031;43.416;23.232;2023-01-19T00:24:34;98716.97;;;16.76;45.05
33697;BME280;20031;43.416;23.232;2023-01-19T00:27:00;98726.69;;;16.64;45.99
33697;BME280;20031;43.416;23.232;2023-01-19T00:29:28;98732.75;;;16.64;45.75
33697;BME280;20031;43.416;23.232;2023-01-19T00:31:58;98717.41;;;16.73;45.50
33697;BME280;20031;43.416;23.232;2023-01-19T00:34:24;98717.63;;;16.83;45.58
33697;BME280;20031;43.416;23.232;2023-01-19T00:36:50;98730.78;;;16.71;45.81
33697;BME280;20031;43.416;23.232;2023-01-19T00:39:15;98720.28;;;16.60;46.33
33697;BME280;20031;43.416;23.232;2023-01-19T00:41:40;98718.00;;;16.63;46.54
33697;BME280;20031;43.416;23.232;2023-01-19T00:44:24;98708.03;;;16.77;46.30
33697;BME280;20031;43.416;23.232;2023-01-19T00:46:50;98709.19;;;16.69;46.46
33697;BME280;20031;43.416;23.232;2023-01-19T00:49:15;98713.91;;;16.56;46.80
33697;BME280;20031;43.416;23.232;2023-01-19T00:51:41;98693.88;;;16.78;45.93
33697;BME280;20031;43.416;23.232;2023-01-19T00:54:06;98705.16;;;16.89;45.69
33697;BME280;20031;43.416;23.232;2023-01-19T00:56:34;98706.09;;;16.84;45.74
33697;BME280;20031;43.416;23.232;2023-01-19T00:59:00;98701.06;;;16.71;46.00
33697;BME280;20031;43.416;23.232;2023-01-19T01:01:25;98698.78;;;16.63;46.43
33697;BME280;20031;43.416;23.232;2023-01-19T01:03:51;98707.81;;;16.67;46.70
33697;BME280;20031;43.416;23.232;2023-01-19T01:06:19;98721.88;;;16.61;46.89
33697;BME280;20031;43.416;23.232;2023-01-19T01:08:44;98710.81;;;16.47;47.35
33697;BME280;20031;43.416;23.232;2023-01-19T01:11:10;98703.03;;;16.30;47.88
33697;BME280;20031;43.416;23.232;2023-01-19T01:13:35;98701.31;;;16.35;47.67
33697;BME280;20031;43.416;23.232;2023-01-19T01:16:01;98697.53;;;16.31;47.86
33697;BME280;20031;43.416;23.232;2023-01-19T01:18:26;98695.69;;;16.32;47.89
33697;BME280;20031;43.416;23.232;2023-01-19T01:20:52;98710.22;;;16.34;47.16
33697;BME280;20031;43.416;23.232;2023-01-19T01:23:17;98692.50;;;16.41;47.44
33697;BME280;20031;43.416;23.232;2023-01-19T01:25:47;98700.84;;;16.38;47.55
33697;BME280;20031;43.416;23.232;2023-01-19T01:28:12;98698.00;;;16.28;47.95
33697;BME280;20031;43.416;23.232;2023-01-19T01:30:37;98683.56;;;16.19;47.91
33697;BME280;20031;43.416;23.232;2023-01-19T01:33:06;98704.41;;;16.43;47.07
33697;BME280;20031;43.416;23.232;2023-01-19T01:35:31;98695.38;;;16.39;47.49
33697;BME280;20031;43.416;23.232;2023-01-19T01:37:58;98678.69;;;16.45;47.21
33697;BME280;20031;43.416;23.232;2023-01-19T01:40:24;98684.63;;;16.41;47.49
33697;BME280;20031;43.416;23.232;2023-01-19T01:42:50;98665.66;;;16.39;47.47
33697;BME280;20031;43.416;23.232;2023-01-19T01:45:33;98661.75;;;16.41;47.91
33697;BME280;20031;43.416;23.232;2023-01-19T01:48:12;98662.13;;;16.45;47.82
33697;BME280;20031;43.416;23.232;2023-01-19T01:51:19;98658.25;;;16.47;47.64
33697;BME280;20031;43.416;23.232;2023-01-19T01:56:43;98655.84;;;16.46;47.63
33697;BME280;20031;43.416;23.232;2023-01-19T01:59:27;98650.91;;;16.49;47.20
33697;BME280;20031;43.416;23.232;2023-01-19T02:02:02;98652.41;;;16.45;47.53
33697;BME280;20031;43.416;23.232;2023-01-19T02:04:53;98656.88;;;16.45;47.21
33697;BME280;20031;43.416;23.232;2023-01-19T02:07:28;98655.47;;;16.42;47.31
33697;BME280;20031;43.416;23.232;2023-01-19T02:10:12;98647.38;;;16.44;47.19
33697;BME280;20031;43.416;23.232;2023-01-19T02:12:56;98655.38;;;16.49;46.84
33697;BME280;20031;43.416;23.232;2023-01-19T02:15:40;98640.41;;;16.38;47.22
33697;BME280;20031;43.416;23.232;2023-01-19T02:18:05;98634.13;;;16.39;47.03
33697;BME280;20031;43.416;23.232;2023-01-19T02:20:32;98634.22;;;16.44;47.04
33697;BME280;20031;43.416;23.232;2023-01-19T02:23:02;98645.34;;;16.46;47.16
33697;BME280;20031;43.416;23.232;2023-01-19T02:25:29;98647.97;;;16.46;46.93
33697;BME280;20031;43.416;23.232;2023-01-19T02:27:55;98649.91;;;16.39;47.24
33697;BME280;20031;43.416;23.232;2023-01-19T02:30:21;98651.94;;;16.37;47.01
33697;BME280;20031;43.416;23.232;2023-01-19T02:32:47;98662.34;;;16.32;46.74
33697;BME280;20031;43.416;23.232;2023-01-19T02:35:13;98662.81;;;16.29;47.38
33697;BME280;20031;43.416;23.232;2023-01-19T02:37:39;98657.56;;;16.29;46.94
33697;BME280;20031;43.416;23.232;2023-01-19T02:40:12;98660.97;;;16.30;46.98
33697;BME280;20031;43.416;23.232;2023-01-19T02:42:47;98672.06;;;16.43;46.46
33697;BME280;20031;43.416;23.232;2023-01-19T02:45:17;98661.19;;;16.39;46.47
33697;BME280;20031;43.416;23.232;2023-01-19T02:47:46;98678.22;;;16.37;46.38
33697;BME280;20031;43.416;23.232;2023-01-19T03:06:50;98645.19;;;16.52;45.33
33697;BME280;20031;43.416;23.232;2023-01-19T03:11:50;98669.63;;;16.53;45.50
33697;BME280;20031;43.416;23.232;2023-01-19T03:14:20;98659.81;;;16.60;45.01
33697;BME280;20031;43.416;23.232;2023-01-19T03:17:00;98664.84;;;16.50;45.41
33697;BME280;20031;43.416;23.232;2023-01-19T03:19:35;98674.34;;;16.51;45.02
33697;BME280;20031;43.416;23.232;2023-01-19T03:22:05;98662.13;;;16.45;45.60
33697;BME280;20031;43.416;23.232;2023-01-19T03:24:35;98664.63;;;16.40;45.28
33697;BME280;20031;43.416;23.232;2023-01-19T03:27:16;98657.66;;;16.45;45.10
33697;BME280;20031;43.416;23.232;2023-01-19T03:29:48;98656.50;;;16.53;45.21
33697;BME280;20031;43.416;23.232;2023-01-19T03:32:18;98672.28;;;16.53;44.87
33697;BME280;20031;43.416;23.232;2023-01-19T03:34:48;98670.22;;;16.55;45.02
33697;BME280;20031;43.416;23.232;2023-01-19T03:37:17;98670.00;;;16.56;44.42
33697;BME280;20031;43.416;23.232;2023-01-19T03:39:44;98669.88;;;16.51;45.08
33697;BME280;20031;43.416;23.232;2023-01-19T03:42:13;98668.97;;;16.57;44.82
33697;BME280;20031;43.416;23.232;2023-01-19T03:44:40;98668.16;;;16.57;44.74
33697;BME280;20031;43.416;23.232;2023-01-19T03:47:07;98669.53;;;16.48;44.40
33697;BME280;20031;43.416;23.232;2023-01-19T03:49:35;98666.00;;;16.42;45.34
33697;BME280;20031;43.416;23.232;2023-01-19T03:52:02;98667.13;;;16.58;44.44
33697;BME280;20031;43.416;23.232;2023-01-19T03:54:28;98670.91;;;16.62;44.39
33697;BME280;20031;43.416;23.232;2023-01-19T03:56:53;98671.03;;;16.55;44.36
33697;BME280;20031;43.416;23.232;2023-01-19T03:59:19;98671.59;;;16.57;44.68
33697;BME280;20031;43.416;23.232;2023-01-19T04:01:46;98660.97;;;16.64;44.44
33697;BME280;20031;43.416;23.232;2023-01-19T04:04:11;98671.00;;;16.67;44.10
33697;BME280;20031;43.416;23.232;2023-01-19T04:06:38;98661.28;;;16.79;43.76
33697;BME280;20031;43.416;23.232;2023-01-19T04:09:04;98672.28;;;16.76;43.96
33697;BME280;20031;43.416;23.232;2023-01-19T04:11:29;98671.38;;;16.70;43.82
33697;BME280;20031;43.416;23.232;2023-01-19T04:13:55;98681.19;;;16.63;43.85
33697;BME280;20031;43.416;23.232;2023-01-19T04:16:20;98685.53;;;16.58;44.27
33697;BME280;20031;43.416;23.232;2023-01-19T04:18:47;98681.28;;;16.68;43.68
33697;BME280;20031;43.416;23.232;2023-01-19T04:21:12;98672.94;;;16.60;44.02
33697;BME280;20031;43.416;23.232;2023-01-19T04:23:38;98691.72;;;16.63;43.58
33697;BME280;20031;43.416;23.232;2023-01-19T04:26:06;98695.34;;;16.74;43.27
33697;BME280;20031;43.416;23.232;2023-01-19T04:28:32;98687.84;;;16.66;43.27
33697;BME280;20031;43.416;23.232;2023-01-19T04:30:58;98695.28;;;16.57;43.90
33697;BME280;20031;43.416;23.232;2023-01-19T04:33:26;98697.88;;;16.69;43.37
33697;BME280;20031;43.416;23.232;2023-01-19T04:35:52;98694.66;;;16.67;43.38
33697;BME280;20031;43.416;23.232;2023-01-19T04:38:18;98696.50;;;16.78;43.12
33697;BME280;20031;43.416;23.232;2023-01-19T04:40:44;98689.19;;;16.68;43.38
33697;BME280;20031;43.416;23.232;2023-01-19T04:43:10;98691.47;;;16.65;43.40
33697;BME280;20031;43.416;23.232;2023-01-19T04:45:35;98688.94;;;16.70;43.20
33697;BME280;20031;43.416;23.232;2023-01-19T04:48:01;98679.47;;;16.69;43.07
33697;BME280;20031;43.416;23.232;2023-01-19T04:50:29;98681.44;;;16.62;43.48
33697;BME280;20031;43.416;23.232;2023-01-19T04:52:54;98690.78;;;16.58;43.54
33697;BME280;20031;43.416;23.232;2023-01-19T04:55:21;98680.84;;;16.48;43.82
33697;BME280;20031;43.416;23.232;2023-01-19T04:57:46;98671.84;;;16.56;43.67
33697;BME280;20031;43.416;23.232;2023-01-19T05:00:12;98685.22;;;16.66;43.42
33697;BME280;20031;43.416;23.232;2023-01-19T05:02:37;98689.53;;;16.72;43.27
33697;BME280;20031;43.416;23.232;2023-01-19T05:05:03;98668.81;;;16.75;43.29
33697;BME280;20031;43.416;23.232;2023-01-19T05:07:29;98676.94;;;16.85;43.15
33697;BME280;20031;43.416;23.232;2023-01-19T05:09:55;98694.31;;;16.86;42.96
33697;BME280;20031;43.416;23.232;2023-01-19T05:12:20;98693.75;;;16.95;42.58
33697;BME280;20031;43.416;23.232;2023-01-19T05:14:46;98684.72;;;16.91;42.48
33697;BME280;20031;43.416;23.232;2023-01-19T05:17:12;98665.72;;;16.89;42.76
33697;BME280;20031;43.416;23.232;2023-01-19T05:19:37;98649.38;;;16.87;42.66
33697;BME280;20031;43.416;23.232;2023-01-19T05:22:04;98648.63;;;17.03;42.06
33697;BME280;20031;43.416;23.232;2023-01-19T05:24:30;98681.69;;;16.99;42.08
33697;BME280;20031;43.416;23.232;2023-01-19T05:26:56;98679.22;;;16.93;42.36
33697;BME280;20031;43.416;23.232;2023-01-19T05:29:21;98683.44;;;16.83;42.54
33697;BME280;20031;43.416;23.232;2023-01-19T05:31:47;98680.03;;;16.71;42.90
33697;BME280;20031;43.416;23.232;2023-01-19T05:34:12;98682.06;;;16.91;42.37
33697;BME280;20031;43.416;23.232;2023-01-19T05:36:38;98664.09;;;17.00;42.11
33697;BME280;20031;43.416;23.232;2023-01-19T05:39:04;98678.06;;;16.89;42.42
33697;BME280;20031;43.416;23.232;2023-01-19T05:41:30;98681.41;;;16.85;42.46
33697;BME280;20031;43.416;23.232;2023-01-19T05:43:55;98681.88;;;16.82;42.20
33697;BME280;20031;43.416;23.232;2023-01-19T05:46:20;98669.16;;;16.90;42.38
33697;BME280;20031;43.416;23.232;2023-01-19T05:48:46;98664.22;;;16.93;42.32
33697;BME280;20031;43.416;23.232;2023-01-19T05:51:11;98667.88;;;16.92;42.45
33697;BME280;20031;43.416;23.232;2023-01-19T05:53:37;98682.31;;;16.90;42.19
33697;BME280;20031;43.416;23.232;2023-01-19T05:56:04;98695.56;;;16.84;42.32
33697;BME280;20031;43.416;23.232;2023-01-19T05:58:33;98692.97;;;16.72;43.07
33697;BME280;20031;43.416;23.232;2023-01-19T06:01:03;98676.59;;;16.82;42.73
33697;BME280;20031;43.416;23.232;2023-01-19T06:03:33;98689.53;;;16.83;42.73
33697;BME280;20031;43.416;23.232;2023-01-19T06:06:00;98683.66;;;16.92;42.35
33697;BME280;20031;43.416;23.232;2023-01-19T06:08:26;98664.22;;;16.93;42.34
33697;BME280;20031;43.416;23.232;2023-01-19T06:10:51;98670.16;;;17.00;42.31
33697;BME280;20031;43.416;23.232;2023-01-19T06:13:17;98670.50;;;17.04;42.47
33697;BME280;20031;43.416;23.232;2023-01-19T06:15:42;98658.09;;;17.16;41.89
33697;BME280;20031;43.416;23.232;2023-01-19T06:18:09;98694.25;;;17.20;42.20
33697;BME280;20031;43.416;23.232;2023-01-19T06:20:35;98677.69;;;17.08;42.26
33697;BME280;20031;43.416;23.232;2023-01-19T06:23:01;98676.16;;;17.12;41.93
33697;BME280;20031;43.416;23.232;2023-01-19T06:25:26;98693.09;;;17.28;42.14
33697;BME280;20031;43.416;23.232;2023-01-19T06:27:51;98688.97;;;17.32;41.80
33697;BME280;20031;43.416;23.232;2023-01-19T06:30:17;98684.97;;;17.29;41.95
33697;BME280;20031;43.416;23.232;2023-01-19T06:32:43;98676.72;;;17.37;42.01
33697;BME280;20031;43.416;23.232;2023-01-19T06:35:08;98685.50;;;17.42;41.42
33697;BME280;20031;43.416;23.232;2023-01-19T06:37:34;98670.19;;;17.39;41.66
33697;BME280;20031;43.416;23.232;2023-01-19T06:40:00;98670.25;;;17.44;41.50
33697;BME280;20031;43.416;23.232;2023-01-19T06:42:25;98672.78;;;17.51;41.50
33697;BME280;20031;43.416;23.232;2023-01-19T06:44:51;98697.50;;;17.50;41.61
33697;BME280;20031;43.416;23.232;2023-01-19T06:47:16;98677.09;;;17.57;41.33
33697;BME280;20031;43.416;23.232;2023-01-19T06:49:42;98677.50;;;17.65;41.05
33697;BME280;20031;43.416;23.232;2023-01-19T06:52:09;98687.00;;;17.66;41.40
33697;BME280;20031;43.416;23.232;2023-01-19T06:54:35;98673.59;;;17.68;40.78
33697;BME280;20031;43.416;23.232;2023-01-19T06:57:02;98666.00;;;17.71;41.04
33697;BME280;20031;43.416;23.232;2023-01-19T06:59:27;98661.09;;;17.75;40.63
33697;BME280;20031;43.416;23.232;2023-01-19T07:01:52;98633.22;;;17.79;41.04
33697;BME280;20031;43.416;23.232;2023-01-19T07:04:20;98657.03;;;17.84;40.90
33697;BME280;20031;43.416;23.232;2023-01-19T07:06:45;98651.34;;;17.91;40.65
33697;BME280;20031;43.416;23.232;2023-01-19T07:09:10;98658.75;;;17.94;40.26
33697;BME280;20031;43.416;23.232;2023-01-19T07:11:37;98690.34;;;18.06;40.33
33697;BME280;20031;43.416;23.232;2023-01-19T07:14:03;98676.53;;;18.15;40.16
33697;BME280;20031;43.416;23.232;2023-01-19T07:16:29;98660.00;;;18.20;40.14
33697;BME280;20031;43.416;23.232;2023-01-19T07:18:54;98670.06;;;18.23;39.70
33697;BME280;20031;43.416;23.232;2023-01-19T07:21:20;98635.78;;;18.23;39.73
33697;BME280;20031;43.416;23.232;2023-01-19T07:23:50;98677.03;;;18.29;39.91
33697;BME280;20031;43.416;23.232;2023-01-19T07:26:16;98668.41;;;18.33;39.61
33697;BME280;20031;43.416;23.232;2023-01-19T07:28:48;98655.50;;;18.37;39.78
33697;BME280;20031;43.416;23.232;2023-01-19T07:31:15;98648.47;;;18.42;39.26
33697;BME280;20031;43.416;23.232;2023-01-19T07:33:40;98662.31;;;18.49;39.30
33697;BME280;20031;43.416;23.232;2023-01-19T07:36:07;98626.75;;;18.51;39.00
33697;BME280;20031;43.416;23.232;2023-01-19T07:38:33;98622.34;;;18.57;38.91
33697;BME280;20031;43.416;23.232;2023-01-19T07:41:03;98644.03;;;18.64;38.93
33697;BME280;20031;43.416;23.232;2023-01-19T07:43:28;98644.75;;;18.76;38.84
33697;BME280;20031;43.416;23.232;2023-01-19T07:45:55;98640.31;;;18.81;38.58
33697;BME280;20031;43.416;23.232;2023-01-19T07:48:21;98636.22;;;18.90;38.56
33697;BME280;20031;43.416;23.232;2023-01-19T07:50:46;98657.63;;;18.93;38.46
33697;BME280;20031;43.416;23.232;2023-01-19T07:53:12;98648.16;;;18.97;37.88
33697;BME280;20031;43.416;23.232;2023-01-19T07:55:37;98668.91;;;19.05;37.62
33697;BME280;20031;43.416;23.232;2023-01-19T07:58:03;98680.56;;;19.09;37.44
33697;BME280;20031;43.416;23.232;2023-01-19T08:00:32;98669.50;;;19.12;37.09
33697;BME280;20031;43.416;23.232;2023-01-19T08:02:59;98729.63;;;19.27;37.27
33697;BME280;20031;43.416;23.232;2023-01-19T08:05:25;98683.19;;;19.31;36.68
33697;BME280;20031;43.416;23.232;2023-01-19T08:07:53;98694.13;;;19.39;36.85
33697;BME280;20031;43.416;23.232;2023-01-19T08:10:22;98701.34;;;19.48;37.15
33697;BME280;20031;43.416;23.232;2023-01-19T08:12:50;98706.69;;;19.53;36.55
33697;BME280;20031;43.416;23.232;2023-01-19T08:15:16;98703.84;;;19.60;36.31
33697;BME280;20031;43.416;23.232;2023-01-19T08:17:41;98692.78;;;19.63;36.36
33697;BME280;20031;43.416;23.232;2023-01-19T08:20:07;98670.59;;;19.64;36.36
33697;BME280;20031;43.416;23.232;2023-01-19T08:22:33;98691.59;;;19.75;35.92
33697;BME280;20031;43.416;23.232;2023-01-19T08:24:59;98688.00;;;19.86;35.20
33697;BME280;20031;43.416;23.232;2023-01-19T08:27:24;98674.94;;;20.01;35.41
33697;BME280;20031;43.416;23.232;2023-01-19T08:29:50;98697.78;;;20.12;35.04
33697;BME280;20031;43.416;23.232;2023-01-19T08:32:15;98713.38;;;20.13;34.68
33697;BME280;20031;43.416;23.232;2023-01-19T08:34:41;98741.47;;;20.19;34.62
33697;BME280;20031;43.416;23.232;2023-01-19T08:37:06;98721.91;;;20.20;34.38
33697;BME280;20031;43.416;23.232;2023-01-19T08:39:32;98720.91;;;20.26;34.61
33697;BME280;20031;43.416;23.232;2023-01-19T08:41:57;98734.75;;;20.38;34.46
33697;BME280;20031;43.416;23.232;2023-01-19T08:44:25;98734.75;;;20.38;34.36
33697;BME280;20031;43.416;23.232;2023-01-19T08:46:51;98731.78;;;20.30;33.94
33697;BME280;20031;43.416;23.232;2023-01-19T08:49:16;98744.34;;;20.44;34.30
33697;BME280;20031;43.416;23.232;2023-01-19T08:51:42;98722.16;;;20.55;34.33
33697;BME280;20031;43.416;23.232;2023-01-19T08:54:10;98746.88;;;20.65;33.70
33697;BME280;20031;43.416;23.232;2023-01-19T08:56:35;98721.53;;;20.69;33.63
33697;BME280;20031;43.416;23.232;2023-01-19T08:59:01;98722.00;;;20.66;33.34
33697;BME280;20031;43.416;23.232;2023-01-19T09:01:26;98734.97;;;20.68;33.48
33697;BME280;20031;43.416;23.232;2023-01-19T09:03:52;98719.16;;;20.73;33.41
33697;BME280;20031;43.416;23.232;2023-01-19T09:06:18;98744.75;;;20.67;33.15
33697;BME280;20031;43.416;23.232;2023-01-19T09:08:45;98722.84;;;20.72;33.05
33697;BME280;20031;43.416;23.232;2023-01-19T09:11:12;98704.75;;;20.59;33.31
33697;BME280;20031;43.416;23.232;2023-01-19T09:13:39;98741.38;;;20.72;33.16
33697;BME280;20031;43.416;23.232;2023-01-19T09:16:06;98728.78;;;20.89;33.55
33697;BME280;20031;43.416;23.232;2023-01-19T09:18:32;98731.53;;;21.03;33.16
33697;BME280;20031;43.416;23.232;2023-01-19T09:20:58;98723.63;;;21.13;33.12
33697;BME280;20031;43.416;23.232;2023-01-19T09:23:24;98731.53;;;21.08;32.51
33697;BME280;20031;43.416;23.232;2023-01-19T09:25:55;98734.97;;;21.04;32.85
33697;BME280;20031;43.416;23.232;2023-01-19T09:28:21;98736.25;;;20.97;32.89
33697;BME280;20031;43.416;23.232;2023-01-19T09:30:46;98713.63;;;20.74;33.04
33697;BME280;20031;43.416;23.232;2023-01-19T09:33:14;98699.34;;;20.80;33.01
33697;BME280;20031;43.416;23.232;2023-01-19T09:35:41;98690.94;;;20.93;32.61
33697;BME280;20031;43.416;23.232;2023-01-19T09:38:08;98677.66;;;20.83;32.73
33697;BME280;20031;43.416;23.232;2023-01-19T09:40:36;98686.50;;;21.03;32.87
33697;BME280;20031;43.416;23.232;2023-01-19T09:43:51;98678.88;;;21.12;32.48
33697;BME280;20031;43.416;23.232;2023-01-19T09:45:56;98680.22;;;21.19;32.38
33697;BME280;20031;43.416;23.232;2023-01-19T09:48:46;98674.84;;;21.04;32.33
33697;BME280;20031;43.416;23.232;2023-01-19T09:51:15;98696.69;;;21.26;32.55
33697;BME280;20031;43.416;23.232;2023-01-19T09:56:27;98674.16;;;21.24;32.32
33697;BME280;20031;43.416;23.232;2023-01-19T09:58:53;98698.50;;;21.26;32.57
33697;BME280;20031;43.416;23.232;2023-01-19T10:04:26;98672.56;;;21.33;32.30
33697;BME280;20031;43.416;23.232;2023-01-19T10:06:52;98692.78;;;21.49;32.35
33697;BME280;20031;43.416;23.232;2023-01-19T10:09:30;98677.19;;;21.57;32.24
33697;BME280;20031;43.416;23.232;2023-01-19T10:12:10;98691.00;;;21.69;31.53
33697;BME280;20031;43.416;23.232;2023-01-19T10:14:47;98653.38;;;21.82;31.61
33697;BME280;20031;43.416;23.232;2023-01-19T10:19:48;98718.59;;;21.78;31.48
33697;BME280;20031;43.416;23.232;2023-01-19T10:22:20;98672.97;;;21.71;31.91
33697;BME280;20031;43.416;23.232;2023-01-19T10:24:49;98679.59;;;21.78;32.04
33697;BME280;20031;43.416;23.232;2023-01-19T10:27:18;98671.41;;;21.90;31.67
33697;BME280;20031;43.416;23.232;2023-01-19T10:29:45;98660.53;;;21.81;31.88
33697;BME280;20031;43.416;23.232;2023-01-19T10:34:41;98663.47;;;21.95;31.70
33697;BME280;20031;43.416;23.232;2023-01-19T10:39:46;98640.09;;;21.77;31.49
33697;BME280;20031;43.416;23.232;2023-01-19T10:42:16;98672.47;;;21.79;31.21
33697;BME280;20031;43.416;23.232;2023-01-19T10:44:43;98685.97;;;21.82;31.43
33697;BME280;20031;43.416;23.232;2023-01-19T10:47:16;98677.78;;;22.03;31.82
33697;BME280;20031;43.416;23.232;2023-01-19T10:49:42;98673.81;;;22.16;31.34
33697;BME280;20031;43.416;23.232;2023-01-19T10:54:44;98690.50;;;21.97;31.16
33697;BME280;20031;43.416;23.232;2023-01-19T10:57:21;98698.75;;;22.10;31.59
33697;BME280;20031;43.416;23.232;2023-01-19T10:59:49;98691.56;;;22.20;30.95
33697;BME280;20031;43.416;23.232;2023-01-19T11:04:41;98714.97;;;22.28;30.65
33697;BME280;20031;43.416;23.232;2023-01-19T11:07:32;98699.59;;;22.25;30.91
33697;BME280;20031;43.416;23.232;2023-01-19T11:12:43;98705.91;;;22.04;31.15
33697;BME280;20031;43.416;23.232;2023-01-19T11:15:23;98716.25;;;22.01;31.67
33697;BME280;20031;43.416;23.232;2023-01-19T11:17:49;98718.66;;;22.12;31.51
33697;BME280;20031;43.416;23.232;2023-01-19T11:22:44;98730.56;;;22.15;31.39
33697;BME280;20031;43.416;23.232;2023-01-19T11:25:29;98733.75;;;22.22;31.71
33697;BME280;20031;43.416;23.232;2023-01-19T11:27:55;98716.25;;;21.91;31.83
33697;BME280;20031;43.416;23.232;2023-01-19T11:30:24;98730.78;;;21.84;32.59
33697;BME280;20031;43.416;23.232;2023-01-19T11:32:50;98721.81;;;21.95;32.29
33697;BME280;20031;43.416;23.232;2023-01-19T11:35:36;98736.34;;;21.82;32.35
33697;BME280;20031;43.416;23.232;2023-01-19T11:40:37;98717.91;;;21.36;32.29
33697;BME280;20031;43.416;23.232;2023-01-19T11:43:03;98705.63;;;21.15;32.98
33697;BME280;20031;43.416;23.232;2023-01-19T11:45:28;98697.59;;;20.96;33.37
33697;BME280;20031;43.416;23.232;2023-01-19T11:47:54;98693.28;;;20.80;33.72
33697;BME280;20031;43.416;23.232;2023-01-19T11:50:30;98691.31;;;20.65;34.26
33697;BME280;20031;43.416;23.232;2023-01-19T11:58:15;98676.41;;;20.54;33.85
33697;BME280;20031;43.416;23.232;2023-01-19T12:00:49;98687.25;;;20.58;33.74
33697;BME280;20031;43.416;23.232;2023-01-19T12:03:24;98696.81;;;20.59;33.88
33697;BME280;20031;43.416;23.232;2023-01-19T12:08:35;98691.50;;;20.59;34.05
33697;BME280;20031;43.416;23.232;2023-01-19T12:11:01;98684.09;;;20.56;34.34
33697;BME280;20031;43.416;23.232;2023-01-19T12:13:29;98684.63;;;20.58;34.26
33697;BME280;20031;43.416;23.232;2023-01-19T12:16:03;98689.44;;;20.61;33.89
33697;BME280;20031;43.416;23.232;2023-01-19T12:18:36;98695.25;;;20.63;34.05
33697;BME280;20031;43.416;23.232;2023-01-19T12:21:03;98679.38;;;20.63;33.83
33697;BME280;20031;43.416;23.232;2023-01-19T12:23:50;98692.34;;;20.64;33.59
33697;BME280;20031;43.416;23.232;2023-01-19T12:26:43;98689.19;;;20.67;33.57
33697;BME280;20031;43.416;23.232;2023-01-19T12:29:21;98696.38;;;20.72;33.77
33697;BME280;20031;43.416;23.232;2023-01-19T12:34:48;98686.78;;;20.61;34.00
33697;BME280;20031;43.416;23.232;2023-01-19T12:39:59;98689.97;;;20.63;33.97
33697;BME280;20031;43.416;23.232;2023-01-19T12:42:25;98686.78;;;20.61;33.48
33697;BME280;20031;43.416;23.232;2023-01-19T12:45:12;98709.53;;;20.62;34.14
33697;BME280;20031;43.416;23.232;2023-01-19T12:47:39;98695.25;;;20.68;33.49
33697;BME280;20031;43.416;23.232;2023-01-19T12:50:15;98701.06;;;20.65;33.55
33697;BME280;20031;43.416;23.232;2023-01-19T12:52:48;98692.34;;;20.59;33.74
33697;BME280;20031;43.416;23.232;2023-01-19T12:55:29;98711.34;;;20.56;34.08
33697;BME280;20031;43.416;23.232;2023-01-19T12:58:00;98717.94;;;20.54;33.33
33697;BME280;20031;43.416;23.232;2023-01-19T13:00:38;98732.69;;;20.45;34.18
33697;BME280;20031;43.416;23.232;2023-01-19T13:13:30;98752.94;;;20.30;33.73
33697;BME280;20031;43.416;23.232;2023-01-19T13:18:50;98761.69;;;20.35;34.12
33697;BME280;20031;43.416;23.232;2023-01-19T13:21:38;98758.50;;;20.33;33.72
33697;BME280;20031;43.416;23.232;2023-01-19T13:24:05;98765.69;;;20.38;33.99
33697;BME280;20031;43.416;23.232;2023-01-19T13:26:36;98759.09;;;20.40;34.04
33697;BME280;20031;43.416;23.232;2023-01-19T13:29:09;98777.63;;;20.40;34.21
33697;BME280;20031;43.416;23.232;2023-01-19T13:31:39;98769.13;;;20.38;34.30
33697;BME280;20031;43.416;23.232;2023-01-19T13:34:13;98775.94;;;20.29;34.05
33697;BME280;20031;43.416;23.232;2023-01-19T13:36:43;98780.97;;;20.31;34.04
33697;BME280;20031;43.416;23.232;2023-01-19T13:39:36;98783.63;;;20.31;33.82
33697;BME280;20031;43.416;23.232;2023-01-19T13:42:04;98790.28;;;20.38;34.09
33697;BME280;20031;43.416;23.232;2023-01-19T13:44:32;98792.47;;;20.41;34.44
33697;BME280;20031;43.416;23.232;2023-01-19T13:47:02;98788.97;;;20.36;34.11
33697;BME280;20031;43.416;23.232;2023-01-19T13:49:34;98801.03;;;20.27;34.49
33697;BME280;20031;43.416;23.232;2023-01-19T13:52:23;98792.63;;;20.30;34.00
33697;BME280;20031;43.416;23.232;2023-01-19T13:54:58;98804.28;;;20.34;34.10
33697;BME280;20031;43.416;23.232;2023-01-19T14:02:39;98812.25;;;20.12;34.95
33697;BME280;20031;43.416;23.232;2023-01-19T14:10:24;98860.53;;;19.82;35.36
33697;BME280;20031;43.416;23.232;2023-01-19T14:13:00;98858.75;;;19.28;41.67
33697;BME280;20031;43.416;23.232;2023-01-19T14:15:28;98866.59;;;18.74;44.21
33697;BME280;20031;43.416;23.232;2023-01-19T14:20:38;98866.91;;;17.44;50.53
33697;BME280;20031;43.416;23.232;2023-01-19T14:23:05;98874.44;;;17.06;52.32
33697;BME280;20031;43.416;23.232;2023-01-19T14:25:50;98888.94;;;16.75;53.30